Pine Grove Mills, Pennsylvania
Current Conditions -  °F | °C
As of 3:15 AM on Monday 24 Nov 2014 (Local Time) from KUNV Reporting Station
Moderate Rain Moderate Rain  
Wind Chill: 50°   Ceiling: 1400
Heat Index: 50°   Visibility: 10mi
Dew Point: 48°   Wind: 3mph
Humidity: 94%   Direction: 190°S
Pressure: 29.57"   Gusts: NA
Location:  40.73°N, 77.88°W
Report Text: KUNV 240815Z AUTO 19003KT 10SM RA OVC014 10/09 A2957 RMK AO2 T01000091
Loading
Personal Weather Stations






























Interactive Weather Map New forecast layout! Learn more

10-Day Weather Forecast

Advertisements
Track Severe Weather on mobile